Flight Track Log - Related Links

Times and Time Zones

All times are in EDT time to prevent confusion due to time zone crossing. See the UAL4849 flight status page for this flight to view local times or setup timezone preferences in your user account.

Time Position Orientation Groundspeed Altitude Reporting Facility
EDT Latitude Longitude Course Direction KTS MPH feet Rate Location/Type
Mon 11:15:03 AM 43.1036 -77.6914 124° Southeast 122 140 1,300  Level Cleveland Center
Mon 11:16:13 AM 43.0642 -77.6961 185° South 126 145 2,600 1,292 Climbing Cleveland Center
Mon 11:17:13 AM 43.0242 -77.6836 167° South 139 160 4,100 1,650 Climbing Cleveland Center
Mon 11:18:13 AM 42.9842 -77.6656 162° South 147 169 5,900 1,664 Climbing Cleveland Center
Mon 11:19:00 AM 42.9409 -77.2650 124° Southeast  Level FlightAware Approximate
Mon 11:19:12 AM 42.9700 -77.6039 107° East 138 159 7,400  Level Cleveland Center
Mon 11:20:00 AM 42.9087 -77.1840 124° Southeast  Level FlightAware Approximate
Mon 11:20:13 AM 42.9581 -77.5447 105° East 149 171 8,800  Level Cleveland Center
Mon 11:21:12 AM 42.9417 -77.4803 109° East 169 194 10,200 1,300 Climbing Cleveland Center
Mon 11:22:13 AM 42.9253 -77.4131 108° East 175 201 11,400 977 Climbing Cleveland Center
Mon 11:24:04 AM 42.8961 -77.2839 107° East 191 220 13,000 565 Climbing New York Center
Mon 11:25:03 AM 42.8739 -77.1939 109° East 213 245 13,000  Level New York Center
Mon 11:26:04 AM 42.8517 -77.1014 108° East 243 280 13,000  Level New York Center
Mon 11:26:51 AM 42.8294 -77.0158 109° East 253 291 13,000  Level Boston Center
Mon 11:27:51 AM 42.7992 -76.9400 119° Southeast 258 297 13,000  Level Boston Center
Mon 11:28:51 AM 42.7628 -76.8525 120° Southeast 258 297 13,000  Level Boston Center
Mon 11:29:51 AM 42.7244 -76.7706 122° Southeast 258 297 13,000  Level Boston Center
Mon 11:30:51 AM 42.6858 -76.6831 121° Southeast 264 304 13,000  Level Boston Center
Mon 11:31:51 AM 42.6494 -76.6017 121° Southeast 264 304 13,000  Level Boston Center
Mon 11:32:51 AM 42.6108 -76.5172 122° Southeast 264 304 13,000  Level Boston Center
Mon 11:33:51 AM 42.5722 -76.4300 121° Southeast 264 304 13,000  Level Boston Center
Mon 11:34:51 AM 42.5353 -76.3458 121° Southeast 264 304 13,000  Level Boston Center
Mon 11:35:51 AM 42.4967 -76.2589 121° Southeast 264 304 13,000  Level Boston Center
Mon 11:36:51 AM 42.4578 -76.1750 122° Southeast 264 304 13,000  Level Boston Center
Mon 11:37:51 AM 42.4208 -76.0883 120° Southeast 264 304 13,000  Level Boston Center
Mon 11:38:51 AM 42.3819 -76.0072 123° Southeast 264 304 13,000  Level Boston Center
Mon 11:39:51 AM 42.3408 -75.9178 122° Southeast 266 306 13,000  Level Boston Center
Mon 11:40:51 AM 42.3039 -75.8342 121° Southeast 266 306 13,000  Level Boston Center
Mon 11:41:51 AM 42.2667 -75.7508 121° Southeast 259 298 13,000  Level Boston Center
Mon 11:42:51 AM 42.2294 -75.6647 120° Southeast 264 304 13,000  Level Boston Center
Mon 11:43:51 AM 42.1900 -75.5814 123° Southeast 264 304 13,000  Level Boston Center
Mon 11:44:51 AM 42.1486 -75.4981 124° Southeast 264 304 13,000 50 Level Boston Center
Mon 11:45:51 AM 42.1111 -75.4153 121° Southeast 264 304 13,100  Climbing Boston Center
Mon 11:46:51 AM 42.0717 -75.3322 123° Southeast 264 304 13,000 -50 Descending Boston Center
Mon 11:47:51 AM 42.0442 -75.2639 118° Southeast 264 304 13,000  Level Boston Center
Mon 11:48:51 AM 42.0031 -75.1586 118° Southeast 264 304 13,000  Level Boston Center
Mon 11:49:51 AM 41.9678 -75.0622 116° Southeast 264 304 13,000  Level Boston Center
Mon 11:50:51 AM 41.9344 -74.9742 117° Southeast 264 304 13,000 -350 Level Boston Center
Mon 11:51:51 AM 41.8731 -74.9214 147° Southeast 258 297 12,300 -750 Descending Boston Center
Mon 11:52:51 AM 41.8094 -74.8744 151° Southeast 263 303 11,500 -727 Descending Boston Center
Mon 11:54:03 AM 41.7436 -74.8275 152° Southeast 263 303 10,700 -773 Descending Boston Center
Mon 11:55:03 AM 41.6758 -74.7775 151° Southeast 257 296 9,800 -800 Descending Boston Center
Mon 11:56:03 AM 41.6225 -74.7422 154° Southeast 252 290 9,100 -750 Descending Boston Center
Mon 11:57:27 AM 41.5383 -74.6811 151° Southeast 252 290 8,000 -917 Descending Boston Center
Mon 11:58:27 AM 41.4683 -74.6314 152° Southeast 241 277 6,900 -1,000 Descending Boston Center
Mon 11:59:27 AM 41.4169 -74.5992 155° Southeast 235 270 6,000 -388 Descending Boston Center
Mon 12:00:46 PM 41.3333 -74.6167 189° South 232 267 6,000  Level New York TRACON
Mon 12:01:46 PM 41.2667 -74.6500 201° Southwest 226 260 6,000 50 Level New York TRACON
Mon 12:02:46 PM 41.2000 -74.6667 191° South 235 270 6,100 50 Climbing New York TRACON
Mon 12:03:46 PM 41.1333 -74.7000 201° Southwest 239 275 6,100  Level New York TRACON
Mon 12:04:46 PM 41.1000 -74.6333 124° Southeast 231 266 6,100 -50 Level New York TRACON
Mon 12:05:46 PM 41.0500 -74.5833 143° Southeast 236 272 6,000  Descending New York TRACON
Mon 12:06:46 PM 40.9833 -74.5500 159° South 236 272 6,100 -300 Climbing New York TRACON
Mon 12:07:46 PM 40.9500 -74.4833 123° Southeast 220 253 5,400 -600 Descending New York TRACON
Mon 12:08:46 PM 40.9000 -74.5000 194° South 231 266 4,900 -200 Descending New York TRACON
Mon 12:09:46 PM 40.8500 -74.5667 225° Southwest 237 273 5,000 50 Climbing New York TRACON
Mon 12:10:46 PM 40.7833 -74.5667 180° South 221 254 5,000 53 Level New York TRACON
Mon 12:11:40 PM 40.7333 -74.5500 166° South 230 265 5,100  Climbing New York TRACON
Mon 12:12:40 PM 40.6833 -74.5333 166° South 220 253 5,000 -53 Descending New York TRACON
Mon 12:13:34 PM 40.6167 -74.5000 159° South 220 253 5,000 -250 Level New York TRACON
Mon 12:14:40 PM 40.5667 -74.4667 153° Southeast 231 266 4,500 -500 Descending New York TRACON
Mon 12:15:34 PM 40.5000 -74.4500 169° South 235 270 4,000 -368 Descending New York TRACON
Mon 12:16:34 PM 40.4500 -74.4167 153° Southeast 188 216 3,800 -476 Descending New York TRACON
Mon 12:17:40 PM 40.4167 -74.3833 143° Southeast 164 189 3,000 -381 Descending New York TRACON
Mon 12:18:40 PM 40.4500 -74.3333 49° Northeast 157 181 3,000  Level New York TRACON
Mon 12:19:40 PM 40.4833 -74.3000 37° Northeast 159 183 3,000  Level New York TRACON
Mon 12:20:34 PM 40.5167 -74.2833 21° North 161 185 3,000  Level New York TRACON

Login

Don't have an account? Register now (free) for customized features, flight alerts, and more!